Time;durP1;ratioP1;P1;durP2;ratioP2;P2;SDS_P1;SDS_P2;PMS_P1;PMS_P2;Temp;Humidity;BMP_temperature;BMP_pressure;BME280_temperature;BME280_humidity;BME280_pressure;Samples;Min_cycle;Max_cycle;Signal;HPM_P1;HPM_P2
2024/04/05 00:02:05;;;;;;;2.10;1.20;;;;;;;10.01;95.26;100304.77;103375;1316;22645;-62
2024/04/05 00:04:31;;;;;;;2.80;0.90;;;;;;;10.02;93.26;100306.30;103330;1308;22571;-61
2024/04/05 00:06:56;;;;;;;2.20;1.30;;;;;;;9.96;93.15;100307.11;103350;1308;22589;-62
2024/04/05 00:09:21;;;;;;;3.50;1.10;;;;;;;9.94;93.97;100311.79;103364;1308;25287;-64
2024/04/05 00:11:47;;;;;;;1.40;1.00;;;;;;;9.95;94.08;100314.00;103383;1316;22604;-62
2024/04/05 00:14:12;;;;;;;4.70;1.50;;;;;;;9.96;93.97;100310.73;103433;1316;24296;-62
2024/04/05 00:16:38;;;;;;;3.60;1.10;;;;;;;9.94;93.56;100309.73;103334;1297;26788;-62
2024/04/05 00:19:04;;;;;;;2.70;1.20;;;;;;;9.96;94.33;100311.23;103424;1316;22705;-62
2024/04/05 00:21:30;;;;;;;4.90;1.10;;;;;;;9.95;94.82;100312.11;103361;1315;22629;-62
2024/04/05 00:23:56;;;;;;;6.80;2.00;;;;;;;9.98;95.29;100313.79;103386;1315;25433;-61
2024/04/05 00:26:21;;;;;;;2.10;1.10;;;;;;;9.96;94.31;100312.95;103304;1293;22688;-62
2024/04/05 00:28:47;;;;;;;2.30;1.10;;;;;;;9.91;94.47;100317.70;103384;1316;22601;-62
2024/04/05 00:31:12;;;;;;;2.30;0.90;;;;;;;9.88;94.82;100323.27;103356;1316;26109;-63
2024/04/05 00:33:38;;;;;;;4.20;1.10;;;;;;;9.84;94.23;100323.87;103429;1315;25212;-63
2024/04/05 00:36:05;;;;;;;4.20;1.40;;;;;;;9.84;94.39;100327.49;103369;1315;23230;-63
2024/04/05 00:38:30;;;;;;;1.30;0.90;;;;;;;9.82;94.17;100330.63;103417;1301;22559;-63
2024/04/05 00:40:56;;;;;;;1.70;0.80;;;;;;;9.76;93.74;100330.39;103351;1315;24276;-62
2024/04/05 00:43:22;;;;;;;2.60;1.10;;;;;;;9.72;94.87;100336.66;103367;1316;22843;-63
2024/04/05 00:45:49;;;;;;;2.50;0.90;;;;;;;9.70;94.50;100346.50;103436;1316;22583;-64
2024/04/05 00:48:17;;;;;;;1.60;0.90;;;;;;;9.66;93.26;100348.98;103326;1307;25330;-64
2024/04/05 00:50:43;;;;;;;4.10;1.00;;;;;;;9.65;93.68;100351.91;103269;1316;25459;-63
2024/04/05 00:53:32;;;;;;;2.20;1.10;;;;;;;9.65;94.69;100359.14;103280;1316;22564;-64
2024/04/05 00:55:59;;;;;;;2.00;0.80;;;;;;;9.68;96.26;100362.36;103354;1316;22565;-64
2024/04/05 00:58:25;;;;;;;2.40;1.10;;;;;;;9.67;96.06;100360.83;103456;1306;22573;-65
2024/04/05 01:00:51;;;;;;;3.10;0.90;;;;;;;9.69;94.75;100360.45;103389;1316;22969;-66
2024/04/05 01:03:18;;;;;;;3.80;0.90;;;;;;;9.65;93.29;100363.45;103237;1316;22678;-64
2024/04/05 01:05:46;;;;;;;3.00;0.80;;;;;;;9.60;94.71;100370.92;103364;1316;22763;-65
2024/04/05 01:08:14;;;;;;;5.80;1.00;;;;;;;9.60;94.84;100371.45;103306;1292;22567;-64
2024/04/05 01:10:40;;;;;;;4.70;0.90;;;;;;;9.57;94.29;100371.14;103370;1316;22693;-63
2024/04/05 01:13:08;;;;;;;2.50;0.90;;;;;;;9.54;94.11;100376.87;103466;1316;25357;-63
2024/04/05 01:15:34;;;;;;;1.60;0.70;;;;;;;9.51;92.90;100382.23;103414;1315;22575;-63
2024/04/05 01:18:03;;;;;;;2.50;0.80;;;;;;;9.44;92.67;100381.84;103394;1305;26734;-64
2024/04/05 01:20:33;;;;;;;2.90;0.90;;;;;;;9.37;92.75;100387.64;103537;1316;22662;-63
2024/04/05 01:23:02;;;;;;;0.70;0.70;;;;;;;9.30;93.78;100387.75;103606;1316;23383;-63
2024/04/05 01:25:28;;;;;;;3.00;0.90;;;;;;;9.23;92.30;100397.48;103391;1309;22619;-65
2024/04/05 01:27:53;;;;;;;1.60;0.80;;;;;;;9.18;93.10;100399.77;103377;1298;24284;-65
2024/04/05 01:30:19;;;;;;;2.00;1.10;;;;;;;9.11;92.07;100401.25;103365;1316;22580;-63
2024/04/05 01:32:56;;;;;;;3.10;1.10;;;;;;;9.05;93.54;100398.08;103377;1316;25279;-62
2024/04/05 01:35:21;;;;;;;4.00;1.20;;;;;;;8.98;94.90;100402.30;103353;1316;22771;-66
2024/04/05 01:37:46;;;;;;;3.90;1.30;;;;;;;8.93;95.16;100402.35;103336;1300;22876;-66
2024/04/05 01:40:12;;;;;;;2.30;1.10;;;;;;;8.87;93.64;100403.11;103259;1315;22693;-65
2024/04/05 01:42:37;;;;;;;2.60;1.10;;;;;;;8.82;93.38;100400.10;103319;1316;22576;-65
2024/04/05 01:45:04;;;;;;;5.20;1.20;;;;;;;8.77;93.79;100400.86;103350;1316;25680;-65
2024/04/05 01:47:30;;;;;;;5.60;1.60;;;;;;;8.72;94.67;100402.98;103375;1316;22637;-64
2024/04/05 01:49:55;;;;;;;5.10;1.20;;;;;;;8.72;95.14;100405.39;103686;1296;24322;-64
2024/04/05 01:52:21;;;;;;;3.00;1.00;;;;;;;8.70;93.98;100405.59;103376;1316;22573;-63
2024/04/05 01:54:46;;;;;;;1.90;0.80;;;;;;;8.68;96.90;100408.52;103290;1316;24299;-64
2024/04/05 01:57:11;;;;;;;4.30;1.10;;;;;;;8.67;96.71;100404.23;103326;1316;25391;-64
2024/04/05 01:59:37;;;;;;;4.40;0.90;;;;;;;8.62;93.93;100402.75;103333;1297;24296;-63
2024/04/05 02:02:03;;;;;;;5.20;1.20;;;;;;;8.57;95.20;100405.71;103406;1316;26489;-64
2024/04/05 02:04:29;;;;;;;3.20;1.40;;;;;;;8.57;97.03;100408.99;103438;1315;22596;-65
2024/04/05 02:06:54;;;;;;;2.30;0.90;;;;;;;8.55;96.26;100413.83;103412;1316;22651;-63
2024/04/05 02:09:20;;;;;;;5.30;1.60;;;;;;;8.51;96.47;100416.44;103371;1297;22574;-63
2024/04/05 02:11:45;;;;;;;3.10;0.80;;;;;;;8.47;94.66;100414.94;103400;1316;24320;-64
2024/04/05 02:14:10;;;;;;;1.90;1.00;;;;;;;8.44;94.50;100417.02;103419;1316;22688;-64
2024/04/05 02:16:36;;;;;;;5.30;1.20;;;;;;;8.42;93.31;100421.35;103396;1309;22587;-64
2024/04/05 02:19:01;;;;;;;5.50;1.20;;;;;;;8.41;94.55;100423.94;103328;1316;22658;-64
2024/04/05 02:21:27;;;;;;;6.70;1.20;;;;;;;8.39;94.64;100426.52;103347;1315;22586;-63
2024/04/05 02:23:52;;;;;;;3.60;1.10;;;;;;;8.43;95.56;100433.88;103350;1316;22721;-66
2024/04/05 02:26:18;;;;;;;4.80;0.90;;;;;;;8.44;95.15;100438.50;103398;1313;24263;-66
2024/04/05 02:28:44;;;;;;;10.10;2.00;;;;;;;8.48;96.93;100442.25;103408;1294;21758;-65
2024/04/05 02:31:10;;;;;;;1.20;0.70;;;;;;;8.52;96.02;100443.75;103477;1316;22564;-62
2024/04/05 02:33:36;;;;;;;5.20;1.00;;;;;;;8.57;95.75;100451.08;103425;1316;22565;-65
2024/04/05 02:36:02;;;;;;;6.60;1.00;;;;;;;8.62;96.84;100452.41;103727;1316;22886;-65
2024/04/05 02:38:27;;;;;;;3.50;1.30;;;;;;;8.65;95.45;100455.48;103395;1315;22591;-63
2024/04/05 02:40:54;;;;;;;4.10;0.80;;;;;;;8.66;94.44;100452.36;103385;1297;22682;-62
2024/04/05 02:43:20;;;;;;;2.60;1.00;;;;;;;8.71;95.06;100456.44;103361;1308;24386;-62
2024/04/05 02:45:45;;;;;;;4.70;0.80;;;;;;;8.73;94.93;100454.52;103465;1316;22572;-64
2024/04/05 02:48:11;;;;;;;6.60;1.50;;;;;;;8.77;93.97;100451.39;103377;1316;25403;-65
2024/04/05 02:50:36;;;;;;;0.70;0.60;;;;;;;8.81;94.47;100454.26;103395;1306;22699;-64
2024/04/05 02:53:02;;;;;;;3.30;0.90;;;;;;;8.85;93.96;100456.44;103442;1310;24295;-67
2024/04/05 02:55:27;;;;;;;2.60;0.80;;;;;;;8.89;93.23;100457.07;103405;1315;26736;-66
2024/04/05 02:57:53;;;;;;;4.10;1.00;;;;;;;8.92;93.15;100462.54;103394;1316;22799;-63
2024/04/05 03:00:18;;;;;;;3.70;1.10;;;;;;;8.94;94.54;100466.80;103378;1297;23089;-63
2024/04/05 03:02:43;;;;;;;3.20;0.90;;;;;;;8.97;94.80;100471.23;103430;1316;24959;-60
2024/04/05 03:05:10;;;;;;;5.10;1.00;;;;;;;9.00;95.09;100467.77;103347;1308;24083;-63
2024/04/05 03:07:36;;;;;;;4.00;1.10;;;;;;;9.04;95.76;100467.73;103746;1308;23865;-62
2024/04/05 03:10:01;;;;;;;1.80;1.00;;;;;;;9.10;96.06;100466.96;103365;1297;22577;-64
2024/04/05 03:12:27;;;;;;;4.00;1.00;;;;;;;9.13;96.35;100469.67;103433;1308;22710;-63
2024/04/05 03:14:52;;;;;;;5.30;1.10;;;;;;;9.15;96.45;100475.50;103413;1316;25481;-63
2024/04/05 03:17:18;;;;;;;2.60;0.70;;;;;;;9.16;94.88;100474.97;103425;1315;23064;-62
2024/04/05 03:19:44;;;;;;;2.20;0.90;;;;;;;9.16;94.56;100472.39;103416;1294;23038;-62
2024/04/05 03:22:09;;;;;;;5.00;1.10;;;;;;;9.18;94.99;100472.20;103381;1316;26676;-63
2024/04/05 03:24:35;;;;;;;3.10;1.00;;;;;;;9.20;95.04;100475.09;103698;1309;24280;-65
2024/04/05 03:27:00;;;;;;;1.90;0.80;;;;;;;9.20;94.63;100476.47;103278;1297;25346;-65
2024/04/05 03:29:25;;;;;;;1.70;0.70;;;;;;;9.20;93.78;100477.67;103296;1316;26732;-65
2024/04/05 03:31:51;;;;;;;1.00;0.60;;;;;;;9.19;93.87;100483.18;103410;1297;22694;-65
2024/04/05 03:34:17;;;;;;;5.20;1.00;;;;;;;9.18;93.83;100483.88;103395;1315;25965;-65
2024/04/05 03:36:44;;;;;;;3.00;0.80;;;;;;;9.17;93.49;100487.34;103350;1316;22629;-65
2024/04/05 03:39:10;;;;;;;3.10;0.90;;;;;;;9.18;93.12;100491.46;103471;1316;22571;-65
2024/04/05 03:41:36;;;;;;;3.90;0.70;;;;;;;9.18;92.77;100490.94;103392;1294;22566;-64
2024/04/05 03:44:01;;;;;;;2.20;0.80;;;;;;;9.18;93.27;100492.84;103417;1316;22568;-65
2024/04/05 03:46:28;;;;;;;2.90;0.60;;;;;;;9.19;93.45;100495.40;103105;1316;22782;-65
2024/04/05 03:48:54;;;;;;;;;;;;;;;9.19;93.73;100495.91;103539;1316;22546;-65
2024/04/05 03:51:19;;;;;;;4.20;1.00;;;;;;;9.20;93.40;100495.91;103302;1296;22796;-65
2024/04/05 03:53:45;;;;;;;5.60;0.80;;;;;;;9.21;92.90;100492.10;103358;1315;22625;-66
2024/04/05 03:56:11;;;;;;;2.20;0.90;;;;;;;9.23;92.84;100495.68;103349;1309;22571;-66
2024/04/05 03:58:36;;;;;;;3.20;0.90;;;;;;;9.20;93.06;100502.09;103333;1312;22577;-65
2024/04/05 04:01:02;;;;;;;4.20;1.70;;;;;;;9.22;93.13;100507.91;103336;1300;22563;-65
2024/04/05 04:03:27;;;;;;;3.30;1.20;;;;;;;9.23;92.64;100508.42;103401;1313;22567;-68
2024/04/05 04:05:53;;;;;;;3.50;0.80;;;;;;;9.24;93.52;100510.98;103370;1316;22785;-65
2024/04/05 04:08:20;;;;;;;2.80;1.00;;;;;;;9.25;92.79;100518.89;103085;1314;22574;-64
2024/04/05 04:10:47;;;;;;;7.00;1.10;;;;;;;9.26;92.96;100521.45;103319;1294;22708;-66
2024/04/05 04:13:13;;;;;;;;;;;;;;;9.27;93.63;100524.55;103520;1316;22858;-65
2024/04/05 04:15:39;;;;;;;3.10;0.90;;;;;;;9.28;94.34;100528.30;103320;1309;26792;-64
2024/04/05 04:18:05;;;;;;;2.00;0.90;;;;;;;9.30;94.41;100527.95;103395;1316;22579;-66
2024/04/05 04:20:31;;;;;;;4.20;1.00;;;;;;;9.35;94.23;100531.14;103355;1310;23522;-65
2024/04/05 04:22:56;;;;;;;2.10;1.00;;;;;;;9.39;93.59;100532.10;103369;1297;22571;-65
2024/04/05 04:25:21;;;;;;;2.10;0.90;;;;;;;9.42;93.61;100538.43;103386;1315;22588;-65
2024/04/05 04:27:48;;;;;;;9.90;1.10;;;;;;;9.44;93.32;100541.15;103366;1316;22555;-65
2024/04/05 04:30:15;;;;;;;4.90;1.30;;;;;;;9.47;93.01;100541.30;103510;1309;22588;-65
2024/04/05 04:32:40;;;;;;;6.40;1.10;;;;;;;9.49;93.87;100541.97;103222;1304;22717;-64
2024/04/05 04:35:06;;;;;;;2.30;0.80;;;;;;;9.52;93.93;100543.80;103236;1300;22590;-64
2024/04/05 04:37:32;;;;;;;4.50;1.20;;;;;;;9.56;93.63;100543.77;103181;1309;22640;-64
2024/04/05 04:39:58;;;;;;;3.20;1.10;;;;;;;9.58;92.83;100545.29;103033;1310;22573;-64
2024/04/05 04:42:23;;;;;;;5.00;1.20;;;;;;;9.60;93.66;100543.20;102997;1307;22567;-63
2024/04/05 04:44:53;;;;;;;3.70;1.30;;;;;;;9.62;93.88;100546.61;103020;1309;22562;-63
2024/04/05 04:47:18;;;;;;;5.50;1.10;;;;;;;9.64;93.57;100549.85;103256;1316;22567;-64
2024/04/05 04:49:44;;;;;;;4.40;1.20;;;;;;;9.66;93.14;100545.52;103190;1312;22657;-63
2024/04/05 04:52:09;;;;;;;4.00;1.60;;;;;;;9.69;93.18;100549.63;103735;1296;22589;-66
2024/04/05 04:54:35;;;;;;;3.80;1.20;;;;;;;9.72;93.22;100554.41;103356;1305;22597;-64
2024/04/05 04:57:00;;;;;;;3.20;1.10;;;;;;;9.74;92.90;100559.71;103359;1316;22569;-65
2024/04/05 04:59:28;;;;;;;3.50;1.20;;;;;;;9.75;93.06;100557.80;103257;1303;22593;-65
2024/04/05 05:01:55;;;;;;;3.00;1.40;;;;;;;9.78;92.82;100558.63;103238;1297;22619;-63
2024/04/05 05:04:20;;;;;;;6.20;1.30;;;;;;;9.80;92.63;100564.27;103210;1314;22592;-65
2024/04/05 05:06:46;;;;;;;6.80;1.50;;;;;;;9.83;92.38;100562.86;102968;1300;23228;-67
2024/04/05 05:09:13;;;;;;;4.50;1.20;;;;;;;9.86;92.17;100568.33;102907;1313;24357;-66
2024/04/05 05:11:38;;;;;;;3.10;1.70;;;;;;;9.89;92.42;100572.05;103117;1297;27605;-66
2024/04/05 05:14:03;;;;;;;3.20;1.60;;;;;;;9.91;92.28;100571.48;103147;1297;22568;-66
2024/04/05 05:16:29;;;;;;;6.70;1.70;;;;;;;9.95;92.37;100572.81;102931;1316;22611;-66
2024/04/05 05:18:54;;;;;;;5.80;1.60;;;;;;;9.98;92.23;100581.73;102702;1316;23151;-66
2024/04/05 05:21:20;;;;;;;6.70;2.10;;;;;;;10.01;92.25;100587.37;103071;1311;22935;-66
2024/04/05 05:23:45;;;;;;;4.60;1.90;;;;;;;10.03;92.31;100587.34;103059;1296;22731;-64
2024/04/05 05:26:10;;;;;;;5.60;1.90;;;;;;;10.07;92.39;100592.11;102959;1308;25321;-64
2024/04/05 05:28:36;;;;;;;4.20;1.80;;;;;;;10.11;92.19;100592.74;103192;1300;22662;-64
2024/04/05 05:31:01;;;;;;;8.70;2.00;;;;;;;10.13;92.30;100592.89;103155;1316;22644;-64
2024/04/05 05:33:27;;;;;;;4.90;1.80;;;;;;;10.18;92.13;100592.48;103143;1316;25650;-64
2024/04/05 05:35:52;;;;;;;4.00;1.80;;;;;;;10.25;92.02;100594.97;103218;1300;24272;-66
2024/04/05 05:38:17;;;;;;;5.00;1.80;;;;;;;10.33;92.15;100595.91;103343;1309;22661;-66
2024/04/05 05:40:43;;;;;;;4.00;1.60;;;;;;;10.39;91.98;100602.70;103298;1312;22619;-66
2024/04/05 05:43:09;;;;;;;5.90;1.60;;;;;;;10.45;91.85;100603.26;103316;1307;24290;-67
2024/04/05 05:45:34;;;;;;;4.60;1.50;;;;;;;10.53;91.73;100605.20;105324;1316;23271;-65
2024/04/05 05:48:00;;;;;;;3.20;1.50;;;;;;;10.61;91.54;100606.45;105867;1308;23038;-63
2024/04/05 05:50:26;;;;;;;3.70;1.50;;;;;;;10.70;91.43;100609.58;105582;1309;22567;-66
2024/04/05 05:52:52;;;;;;;3.00;1.30;;;;;;;10.79;91.08;100613.41;103356;1293;25410;-67
2024/04/05 05:55:20;;;;;;;3.50;1.60;;;;;;;10.85;90.99;100618.30;103392;1312;22694;-64
2024/04/05 05:57:46;;;;;;;10.80;2.10;;;;;;;10.92;91.01;100620.92;103373;1316;22816;-63
2024/04/05 06:00:13;;;;;;;6.00;1.60;;;;;;;10.97;90.86;100625.30;103391;1315;22636;-65
2024/04/05 06:02:40;;;;;;;6.10;1.80;;;;;;;10.94;90.29;100624.49;103423;1315;25315;-64
2024/04/05 06:05:11;;;;;;;7.50;1.70;;;;;;;10.89;90.34;100628.41;103413;1300;25189;-61
2024/04/05 06:07:37;;;;;;;7.00;1.30;;;;;;;10.85;90.49;100631.06;103676;1316;25408;-60
2024/04/05 06:10:04;;;;;;;7.10;1.60;;;;;;;10.81;90.52;100633.54;103682;1300;25468;-61
2024/04/05 06:12:30;;;;;;;8.40;1.20;;;;;;;10.75;90.31;100632.95;104992;1308;22575;-60
2024/04/05 06:14:57;;;;;;;4.10;1.70;;;;;;;10.73;90.58;100631.60;104692;1296;23145;-64
2024/04/05 06:17:25;;;;;;;5.50;1.70;;;;;;;10.75;90.69;100638.48;104246;1310;25944;-62
2024/04/05 06:19:57;;;;;;;4.90;1.30;;;;;;;10.76;90.95;100640.00;104664;1315;22588;-60
2024/04/05 06:22:27;;;;;;;6.00;1.50;;;;;;;10.79;90.69;100650.30;104610;1315;22741;-59
2024/04/05 06:24:53;;;;;;;5.70;1.20;;;;;;;10.83;90.85;100655.92;103356;1298;22622;-62
2024/04/05 06:27:20;;;;;;;7.10;1.70;;;;;;;10.85;90.80;100655.36;103329;1306;22598;-62
2024/04/05 06:29:54;;;;;;;3.50;1.50;;;;;;;10.88;90.63;100656.36;103473;1309;22535;-59
2024/04/05 06:32:20;;;;;;;5.40;2.10;;;;;;;10.87;90.82;100656.73;104116;1300;22674;-61
2024/04/05 06:34:45;;;;;;;5.50;1.90;;;;;;;10.94;90.69;100658.13;103631;1299;24193;-60
2024/04/05 06:37:12;;;;;;;5.40;1.70;;;;;;;10.99;90.71;100656.84;103494;1316;26552;-64
2024/04/05 06:39:38;;;;;;;6.40;1.80;;;;;;;11.03;90.39;100657.46;103297;1315;22605;-61
2024/04/05 06:42:04;;;;;;;6.90;1.70;;;;;;;11.06;90.42;100659.99;103545;1313;22527;-59
2024/04/05 06:44:35;;;;;;;5.70;1.40;;;;;;;11.10;90.26;100663.03;104134;1297;22561;-60
2024/04/05 06:47:06;;;;;;;6.30;1.70;;;;;;;11.13;90.28;100671.44;103517;1300;22622;-60
2024/04/05 06:49:33;;;;;;;5.10;1.70;;;;;;;11.16;90.22;100671.73;103488;1296;22793;-62
2024/04/05 06:52:06;;;;;;;7.60;2.10;;;;;;;11.15;89.79;100672.95;103425;1313;24097;-60
2024/04/05 06:54:39;;;;;;;2.60;1.60;;;;;;;11.19;89.66;100678.92;103448;1296;25539;-59
2024/04/05 06:57:04;;;;;;;8.80;2.00;;;;;;;11.23;89.84;100677.64;103306;1303;25468;-59
2024/04/05 06:59:32;;;;;;;4.90;1.60;;;;;;;11.29;89.82;100684.44;103437;1310;22566;-63
2024/04/05 07:01:58;;;;;;;7.30;2.10;;;;;;;11.35;89.47;100691.93;103627;1309;26690;-60
2024/04/05 07:04:27;;;;;;;6.60;1.80;;;;;;;11.50;89.82;100694.74;103411;1292;24258;-60
2024/04/05 07:06:53;;;;;;;4.80;1.50;;;;;;;11.70;89.59;100697.83;103576;1315;22580;-66
2024/04/05 07:09:25;;;;;;;6.40;1.80;;;;;;;11.89;89.51;100698.86;103488;1310;26529;-60
2024/04/05 07:11:52;;;;;;;8.10;2.30;;;;;;;11.95;87.15;100700.11;103312;1303;25325;-60
2024/04/05 07:14:19;;;;;;;3.60;1.70;;;;;;;11.98;87.01;100705.21;103643;1312;22727;-65
2024/04/05 07:16:48;;;;;;;4.00;1.90;;;;;;;12.06;86.96;100705.73;102908;1300;22591;-65
2024/04/05 07:19:15;;;;;;;6.10;1.80;;;;;;;12.09;86.41;100706.52;103064;1313;24262;-66
2024/04/05 07:21:40;;;;;;;5.30;1.70;;;;;;;12.19;86.94;100704.42;103718;1309;22863;-64
2024/04/05 07:24:07;;;;;;;2.00;1.30;;;;;;;12.22;85.81;100705.23;103112;1316;22709;-66
2024/04/05 07:26:33;;;;;;;7.70;1.90;;;;;;;12.34;86.49;100708.61;103057;1297;22589;-65
2024/04/05 07:28:58;;;;;;;9.10;2.10;;;;;;;12.42;86.62;100712.06;103906;1316;22596;-65
2024/04/05 07:31:27;;;;;;;5.10;1.80;;;;;;;12.58;86.55;100718.08;102968;1316;22559;-65
2024/04/05 07:33:52;;;;;;;3.70;1.60;;;;;;;12.64;85.29;100718.80;103056;1300;25438;-65
2024/04/05 07:36:18;;;;;;;5.00;2.10;;;;;;;12.70;85.19;100724.20;103121;1296;25473;-65
2024/04/05 07:38:43;;;;;;;6.20;1.90;;;;;;;12.76;84.52;100730.27;103044;1300;24385;-65
2024/04/05 07:41:10;;;;;;;4.20;1.60;;;;;;;12.88;83.92;100725.17;103049;1315;25433;-65
2024/04/05 07:43:35;;;;;;;3.00;1.60;;;;;;;13.05;84.27;100726.80;103186;1316;25833;-65
2024/04/05 07:46:01;;;;;;;5.80;1.80;;;;;;;13.29;82.36;100729.19;102942;1309;24369;-65
2024/04/05 07:48:27;;;;;;;7.30;1.90;;;;;;;13.25;81.53;100731.01;103084;1300;24337;-66
2024/04/05 07:50:57;;;;;;;8.00;2.50;;;;;;;13.53;82.33;100733.07;103031;1309;25201;-65
2024/04/05 07:53:23;;;;;;;6.80;1.60;;;;;;;13.49;79.63;100732.64;103430;1315;22682;-64
2024/04/05 07:55:48;;;;;;;7.00;1.90;;;;;;;13.61;80.90;100739.94;103004;1296;22567;-64
2024/04/05 07:58:13;;;;;;;6.30;1.90;;;;;;;13.91;82.43;100734.94;103026;1309;22579;-66
2024/04/05 08:00:39;;;;;;;6.20;2.00;;;;;;;14.13;80.44;100740.56;102999;1315;23952;-64
2024/04/05 08:03:06;;;;;;;9.70;2.00;;;;;;;14.36;81.30;100738.84;102922;1309;22608;-64
2024/04/05 08:05:34;;;;;;;5.40;1.60;;;;;;;14.38;78.87;100740.88;102877;1293;22566;-64
2024/04/05 08:07:59;;;;;;;6.70;2.00;;;;;;;14.45;77.87;100742.25;102945;1309;22689;-64
2024/04/05 08:10:25;;;;;;;6.80;2.00;;;;;;;14.27;76.49;100737.02;102780;1316;24343;-64
2024/04/05 08:12:51;;;;;;;6.90;2.20;;;;;;;14.26;76.85;100737.39;102961;1312;22900;-64
2024/04/05 08:15:16;;;;;;;5.00;1.70;;;;;;;14.36;76.62;100735.73;102875;1300;22672;-64
2024/04/05 08:17:42;;;;;;;7.30;2.40;;;;;;;14.37;75.80;100732.39;102968;1310;24943;-64
2024/04/05 08:20:07;;;;;;;7.10;1.70;;;;;;;14.38;74.42;100736.54;103041;1300;22577;-65
2024/04/05 08:22:33;;;;;;;8.40;2.10;;;;;;;14.42;76.02;100738.16;102989;1309;22597;-66
2024/04/05 08:24:59;;;;;;;8.50;2.90;;;;;;;14.70;78.06;100731.73;106323;1308;22509;-62
2024/04/05 08:27:28;;;;;;;8.60;2.30;;;;;;;14.85;76.45;100733.53;104587;1296;22599;-63
2024/04/05 08:29:53;;;;;;;10.00;2.10;;;;;;;14.95;75.93;100738.09;103285;1300;22573;-64
2024/04/05 08:32:19;;;;;;;9.70;2.20;;;;;;;15.06;75.07;100732.14;103219;1300;22656;-63
2024/04/05 08:34:45;;;;;;;8.30;2.30;;;;;;;15.82;73.38;100736.30;103286;1303;26249;-64
2024/04/05 08:37:10;;;;;;;9.30;2.50;;;;;;;16.23;70.91;100736.50;103220;1296;25315;-64
2024/04/05 08:39:35;;;;;;;10.90;3.00;;;;;;;16.28;69.35;100737.92;103331;1300;25570;-64
2024/04/05 08:42:11;;;;;;;9.60;2.80;;;;;;;16.43;66.97;100732.30;103224;1305;25331;-64
2024/04/05 08:44:39;;;;;;;13.80;3.70;;;;;;;16.51;67.46;100735.98;103323;1315;22574;-65
2024/04/05 08:47:10;;;;;;;13.70;2.60;;;;;;;16.33;67.29;100732.86;103337;1312;23288;-64
2024/04/05 08:49:36;;;;;;;10.00;2.40;;;;;;;16.35;67.91;100730.32;103319;1312;25333;-64
2024/04/05 08:52:02;;;;;;;12.60;2.70;;;;;;;16.33;67.53;100724.49;103177;1315;23944;-64
2024/04/05 08:54:31;;;;;;;9.20;2.80;;;;;;;16.72;69.43;100727.16;104114;1300;22574;-64
2024/04/05 08:56:59;;;;;;;6.80;2.50;;;;;;;17.10;69.62;100722.48;103378;1297;22563;-64
2024/04/05 08:59:29;;;;;;;14.10;3.10;;;;;;;17.29;64.44;100720.43;103733;1310;22717;-65
2024/04/05 09:02:00;;;;;;;11.60;2.90;;;;;;;17.86;67.73;100722.17;103485;1312;22730;-65
2024/04/05 09:04:27;;;;;;;6.70;2.30;;;;;;;18.71;70.71;100723.45;104344;1310;22586;-63
2024/04/05 09:06:54;;;;;;;7.90;2.60;;;;;;;18.97;66.04;100725.16;103383;1296;22588;-63
2024/04/05 09:09:31;;;;;;;9.30;2.40;;;;;;;18.97;62.67;100726.20;103273;1306;22582;-64
2024/04/05 09:12:10;;;;;;;9.60;2.80;;;;;;;18.88;62.61;100725.27;103639;1300;22578;-63
2024/04/05 09:14:37;;;;;;;11.50;3.00;;;;;;;18.64;59.83;100721.33;103900;1313;22564;-63
2024/04/05 09:17:12;;;;;;;11.20;3.10;;;;;;;19.15;59.56;100716.55;103233;1294;21780;-65
2024/04/05 09:19:40;;;;;;;9.60;2.60;;;;;;;20.24;59.06;100721.34;103371;1315;22576;-64
2024/04/05 09:22:07;;;;;;;11.00;3.10;;;;;;;20.44;56.48;100720.09;103889;1309;22567;-64
2024/04/05 09:24:33;;;;;;;10.30;2.60;;;;;;;20.16;56.75;100723.36;103473;1313;22576;-63
2024/04/05 09:27:06;;;;;;;10.70;2.90;;;;;;;19.78;58.74;100717.90;103571;1295;22621;-64
2024/04/05 09:29:32;;;;;;;13.80;4.50;;;;;;;20.34;54.76;100720.46;103640;1309;22884;-65
2024/04/05 09:31:57;;;;;;;12.10;4.10;;;;;;;19.69;55.25;100720.27;103397;1309;23262;-64
2024/04/05 09:34:25;;;;;;;6.90;2.40;;;;;;;19.58;55.79;100725.73;103509;1316;22686;-63
2024/04/05 09:36:54;;;;;;;13.40;2.60;;;;;;;19.60;56.13;100726.33;103473;1294;22592;-64
2024/04/05 09:39:21;;;;;;;16.70;3.00;;;;;;;20.16;55.91;100722.81;103507;1296;22583;-64
2024/04/05 09:41:55;;;;;;;11.40;3.00;;;;;;;19.98;52.26;100718.39;103777;1300;22683;-64
2024/04/05 09:44:21;;;;;;;6.40;2.10;;;;;;;20.37;52.83;100716.57;103684;1315;24232;-63
2024/04/05 09:46:48;;;;;;;7.40;2.10;;;;;;;20.19;50.91;100710.77;104019;1300;22525;-63
2024/04/05 09:49:14;;;;;;;8.80;2.60;;;;;;;21.18;49.55;100719.52;105309;1298;26272;-64
2024/04/05 09:51:45;;;;;;;6.10;2.20;;;;;;;21.01;49.29;100724.70;104889;1309;22533;-64
2024/04/05 09:54:13;;;;;;;10.60;3.20;;;;;;;20.55;50.86;100722.95;105245;1312;22608;-64
2024/04/05 09:56:44;;;;;;;10.60;3.20;;;;;;;21.12;48.59;100716.55;105132;1309;27718;-64
2024/04/05 09:59:14;;;;;;;9.00;2.80;;;;;;;21.65;49.47;100707.19;105572;1297;22578;-64
2024/04/05 10:01:41;;;;;;;10.10;2.60;;;;;;;22.02;46.06;100709.02;104908;1309;22634;-64
2024/04/05 10:04:08;;;;;;;9.60;2.50;;;;;;;22.12;46.35;100707.70;105023;1312;22644;-64
2024/04/05 10:06:38;;;;;;;9.30;2.90;;;;;;;21.76;46.59;100699.53;104797;1309;23481;-63
2024/04/05 10:09:13;;;;;;;9.10;2.60;;;;;;;22.12;45.25;100702.41;104867;1299;22549;-63
2024/04/05 10:11:40;;;;;;;6.00;2.60;;;;;;;22.80;47.85;100696.78;105490;1309;22613;-64
2024/04/05 10:14:06;;;;;;;;;;;;;;;22.29;45.11;100704.83;104924;1300;22575;-64
2024/04/05 10:16:31;;;;;;;9.10;2.80;;;;;;;21.36;47.87;100704.59;105007;1316;23625;-64
2024/04/05 10:18:56;;;;;;;8.80;2.80;;;;;;;20.39;47.40;100707.73;104987;1312;22563;-63
2024/04/05 10:21:34;;;;;;;7.40;2.60;;;;;;;21.51;46.43;100705.29;105571;1310;22553;-64
2024/04/05 10:24:00;;;;;;;8.40;3.20;;;;;;;23.04;46.14;100705.40;105844;1309;22596;-64
2024/04/05 10:26:25;;;;;;;7.70;3.20;;;;;;;24.25;42.82;100708.27;105762;1309;22531;-64
2024/04/05 10:29:05;;;;;;;7.70;2.50;;;;;;;24.85;43.17;100710.41;105417;1300;25185;-64
2024/04/05 10:31:36;;;;;;;5.60;2.60;;;;;;;24.34;41.91;100709.87;104759;1316;24451;-64
2024/04/05 10:34:04;;;;;;;8.60;3.00;;;;;;;24.90;42.38;100707.20;105104;1310;22672;-63
2024/04/05 10:36:36;;;;;;;9.50;2.60;;;;;;;25.92;42.90;100718.24;105418;1302;22601;-64
2024/04/05 10:39:18;;;;;;;7.50;3.20;;;;;;;25.55;40.54;100717.64;104617;1306;22567;-64
2024/04/05 10:41:46;;;;;;;6.40;2.70;;;;;;;24.89;40.50;100725.77;103430;1316;22532;-63
2024/04/05 10:44:13;;;;;;;6.10;3.00;;;;;;;24.39;41.92;100721.34;103990;1306;22571;-65
2024/04/05 10:46:39;;;;;;;6.40;2.80;;;;;;;24.50;39.36;100720.52;104732;1309;22668;-65
2024/04/05 10:49:05;;;;;;;6.40;2.50;;;;;;;24.28;40.64;100727.09;103129;1296;22686;-65
2024/04/05 10:51:31;;;;;;;7.60;2.60;;;;;;;24.90;40.09;100717.98;102983;1316;22614;-65
2024/04/05 10:54:16;;;;;;;6.60;2.50;;;;;;;23.21;39.34;100726.88;103187;1312;23217;-63
2024/04/05 10:56:43;;;;;;;6.20;2.50;;;;;;;23.43;41.12;100726.84;104691;1308;22605;-61
2024/04/05 10:59:13;;;;;;;10.10;2.90;;;;;;;24.11;40.38;100725.48;104257;1296;22879;-61
2024/04/05 11:01:39;;;;;;;7.50;2.60;;;;;;;24.05;38.56;100727.46;103792;1309;25426;-59
2024/04/05 11:04:13;;;;;;;7.10;2.60;;;;;;;24.85;38.94;100721.18;104900;1305;22564;-63
2024/04/05 11:06:40;;;;;;;4.50;1.60;;;;;;;24.55;38.28;100719.63;104403;1315;23937;-61
2024/04/05 11:09:15;;;;;;;6.10;2.20;;;;;;;23.78;39.06;100721.29;104119;1300;22699;-62
2024/04/05 11:11:41;;;;;;;5.70;2.20;;;;;;;24.41;39.17;100711.89;104416;1316;23692;-63
2024/04/05 11:14:09;;;;;;;7.10;2.20;;;;;;;25.05;37.54;100716.83;104386;1315;23426;-62
2024/04/05 11:16:38;;;;;;;6.30;2.40;;;;;;;24.70;37.53;100721.42;104781;1312;22658;-63
2024/04/05 11:19:04;;;;;;;10.00;2.30;;;;;;;23.98;38.17;100720.36;104181;1294;167714;-64
2024/04/05 11:21:30;;;;;;;4.50;1.60;;;;;;;22.63;39.40;100717.41;104236;1309;23862;-61